Time;durP1;ratioP1;P1;durP2;ratioP2;P2;SDS_P1;SDS_P2;PMS_P1;PMS_P2;Temp;Humidity;BMP_temperature;BMP_pressure;BME280_temperature;BME280_humidity;BME280_pressure;Samples;Min_cycle;Max_cycle;Signal;HPM_P1;HPM_P2
2022/10/11 00:05:14;;;;;;;9.93;7.23;;;;;18.10;99372.00;;;;16509645;28;20230;-48
2022/10/11 00:13:18;;;;;;;11.50;8.00;;;;;17.50;99364.00;;;;16516892;28;20232;-48
2022/10/11 00:21:21;;;;;;;7.90;6.80;;;;;16.60;99382.00;;;;16515568;28;20238;-48
2022/10/11 00:29:24;;;;;;;11.53;7.60;;;;;16.70;99382.00;;;;16516245;28;20746;-48
2022/10/11 00:37:27;;;;;;;15.53;6.83;;;;;16.10;99383.00;;;;16516150;28;20208;-47
2022/10/11 00:46:05;;;;;;;7.50;6.20;;;;;16.00;99388.00;;;;16516023;28;20284;-48
2022/10/11 00:54:12;;;;;;;8.93;6.40;;;;;15.80;99392.00;;;;16516896;28;20807;-48
2022/10/11 01:02:16;;;;;;;8.10;6.60;;;;;15.80;99397.00;;;;16523402;28;20245;-48
2022/10/11 01:10:19;;;;;;;14.10;6.87;;;;;15.60;99395.00;;;;16528695;28;20231;-48
2022/10/11 01:18:28;;;;;;;13.30;6.90;;;;;15.70;99391.00;;;;16527228;28;20203;-48
2022/10/11 01:26:55;;;;;;;11.27;7.23;;;;;15.70;99395.00;;;;16521471;28;20239;-48
2022/10/11 01:35:02;;;;;;;9.30;6.63;;;;;15.30;99407.00;;;;16525492;28;20228;-48
2022/10/11 01:43:05;;;;;;;11.60;7.47;;;;;15.30;99397.00;;;;16515077;28;20230;-48
2022/10/11 01:51:09;;;;;;;7.57;6.87;;;;;15.00;99398.00;;;;16524171;28;20230;-47
2022/10/11 01:59:22;;;;;;;9.40;7.00;;;;;15.00;99405.00;;;;16523928;28;20575;-48
2022/10/11 02:07:33;;;;;;;10.30;7.73;;;;;14.80;99401.00;;;;16521505;28;20241;-48
2022/10/11 02:15:38;;;;;;;11.10;7.37;;;;;14.70;99404.00;;;;16524367;28;20231;-48
2022/10/11 02:23:47;;;;;;;9.10;7.23;;;;;14.60;99408.00;;;;16524462;28;20313;-48
2022/10/11 02:31:51;;;;;;;11.27;7.63;;;;;14.40;99409.00;;;;16523265;28;20235;-48
2022/10/11 02:39:56;;;;;;;12.63;8.63;;;;;14.50;99410.00;;;;16523437;28;20223;-48
2022/10/11 02:47:59;;;;;;;16.30;9.30;;;;;14.50;99420.00;;;;16519293;28;20342;-47
2022/10/11 02:56:03;;;;;;;8.93;7.77;;;;;14.50;99417.00;;;;16526404;28;20238;-48
2022/10/11 03:04:05;;;;;;;10.37;9.07;;;;;14.80;99417.00;;;;16520868;28;20313;-48
2022/10/11 03:12:09;;;;;;;15.13;9.73;;;;;15.20;99421.00;;;;16521134;28;20241;-48
2022/10/11 03:20:12;;;;;;;10.97;8.53;;;;;14.90;99435.00;;;;16521529;28;20251;-48
2022/10/11 03:28:15;;;;;;;9.37;8.43;;;;;14.90;99440.00;;;;16519524;28;20207;-48
2022/10/11 03:36:18;;;;;;;9.93;8.93;;;;;14.90;99439.00;;;;16516230;28;20230;-48
2022/10/11 03:44:22;;;;;;;15.60;9.30;;;;;15.00;99440.00;;;;16512333;28;20220;-48
2022/10/11 03:52:24;;;;;;;10.23;9.33;;;;;15.00;99440.00;;;;16516869;28;20231;-48
2022/10/11 04:00:28;;;;;;;11.37;9.30;;;;;15.10;99437.00;;;;16503754;28;20223;-48
2022/10/11 04:08:30;;;;;;;16.57;12.50;;;;;15.20;99445.00;;;;16513965;28;20207;-48
2022/10/11 04:16:37;;;;;;;18.43;11.67;;;;;15.30;99451.00;;;;16509610;28;20268;-48
2022/10/11 04:24:39;;;;;;;14.07;12.40;;;;;15.30;99453.00;;;;16513935;28;20852;-47
2022/10/11 04:32:43;;;;;;;17.70;11.90;;;;;15.50;99446.00;;;;16500223;28;20245;-48
2022/10/11 04:40:46;;;;;;;20.87;12.27;;;;;15.80;99454.00;;;;16493045;28;20289;-48
2022/10/11 04:48:50;;;;;;;20.10;14.90;;;;;16.00;99456.00;;;;16513147;28;20200;-48
2022/10/11 04:56:52;;;;;;;17.40;13.23;;;;;16.00;99458.00;;;;16514561;28;20589;-48
2022/10/11 05:04:56;;;;;;;18.60;14.47;;;;;16.00;99470.00;;;;16512950;28;20219;-47
2022/10/11 05:12:58;;;;;;;18.43;15.17;;;;;15.90;99476.00;;;;16505740;28;20259;-48
2022/10/11 05:21:04;;;;;;;24.67;15.53;;;;;16.10;99478.00;;;;16503961;28;20267;-47
2022/10/11 05:29:06;;;;;;;21.13;16.43;;;;;16.10;99482.00;;;;16503599;28;20295;-48
2022/10/11 05:37:10;;;;;;;25.07;17.23;;;;;16.10;99492.00;;;;16509162;28;20202;-48
2022/10/11 05:45:13;;;;;;;25.60;20.13;;;;;16.00;99497.00;;;;16514366;28;20234;-47
2022/10/11 05:53:17;;;;;;;27.67;21.23;;;;;16.20;99504.00;;;;16544209;23;20241;-48
2022/10/11 06:01:21;;;;;;;29.73;23.20;;;;;16.40;99515.00;;;;16517806;28;20200;-48
2022/10/11 06:09:24;;;;;;;27.40;20.90;;;;;16.70;99526.00;;;;16521139;28;20224;-48
2022/10/11 06:17:28;;;;;;;34.83;22.47;;;;;16.50;99528.00;;;;16519005;28;20224;-49
2022/10/11 06:25:31;;;;;;;33.27;23.03;;;;;16.50;99528.00;;;;16522256;28;20228;-48
2022/10/11 06:33:34;;;;;;;35.80;22.37;;;;;16.70;99544.00;;;;16504185;28;20228;-48
2022/10/11 06:41:38;;;;;;;28.97;20.93;;;;;16.30;99550.00;;;;16504929;28;20210;-48
2022/10/11 06:49:40;;;;;;;30.40;22.70;;;;;16.70;99555.00;;;;16496828;28;20230;-49
2022/10/11 06:57:44;;;;;;;25.03;18.57;;;;;16.80;99574.00;;;;16498543;28;20243;-48
2022/10/11 07:05:46;;;;;;;24.97;19.60;;;;;16.80;99576.00;;;;16496509;28;20223;-49
2022/10/11 07:13:51;;;;;;;29.13;18.30;;;;;16.80;99584.00;;;;16492617;28;20231;-48
2022/10/11 07:21:54;;;;;;;29.97;19.53;;;;;16.70;99595.00;;;;16494740;28;20523;-48
2022/10/11 07:29:57;;;;;;;26.10;18.87;;;;;16.60;99598.00;;;;16490549;28;20918;-48
2022/10/11 07:38:00;;;;;;;28.43;18.80;;;;;16.70;99602.00;;;;16501732;28;20230;-49
2022/10/11 07:46:04;;;;;;;23.33;19.70;;;;;16.60;99604.00;;;;16500551;28;20224;-48
2022/10/11 07:54:06;;;;;;;22.40;18.13;;;;;16.80;99609.00;;;;16500762;28;20235;-48
2022/10/11 08:02:12;;;;;;;25.50;19.70;;;;;16.60;99618.00;;;;16510878;28;20200;-48
2022/10/11 08:10:14;;;;;;;23.93;18.53;;;;;17.00;99614.00;;;;16497240;28;20219;-48
2022/10/11 08:18:18;;;;;;;25.63;18.80;;;;;16.70;99607.00;;;;16515234;28;20218;-48
2022/10/11 08:26:20;;;;;;;30.47;20.30;;;;;17.40;99607.00;;;;16508172;28;20234;-49
2022/10/11 08:34:24;;;;;;;24.20;17.33;;;;;16.90;99622.00;;;;16515266;28;20223;-48
2022/10/11 08:42:31;;;;;;;24.57;17.50;;;;;17.50;99615.00;;;;16508922;28;20204;-49
2022/10/11 08:50:35;;;;;;;29.87;20.83;;;;;17.60;99614.00;;;;16513377;28;20230;-48
2022/10/11 08:58:43;;;;;;;25.37;19.50;;;;;17.40;99624.00;;;;16510838;28;20254;-48
2022/10/11 09:06:53;;;;;;;29.80;20.17;;;;;17.50;99616.00;;;;16507809;28;20286;-50
2022/10/11 09:15:09;;;;;;;29.33;20.03;;;;;17.10;99621.00;;;;16496752;28;20247;-49
2022/10/11 09:23:23;;;;;;;28.30;20.60;;;;;17.30;99621.00;;;;16501833;28;20683;-49
2022/10/11 09:31:25;;;;;;;28.17;21.50;;;;;17.30;99625.00;;;;16518855;28;20691;-48
2022/10/11 09:39:32;;;;;;;27.73;19.67;;;;;17.00;99628.00;;;;16523634;28;20224;-48
2022/10/11 09:47:34;;;;;;;34.30;21.80;;;;;17.40;99630.00;;;;16522185;28;20216;-50
2022/10/11 09:55:42;;;;;;;27.57;21.17;;;;;17.40;99637.00;;;;16523915;28;20235;-49
2022/10/11 10:03:44;;;;;;;27.70;20.60;;;;;17.70;99636.00;;;;16513495;28;20219;-48
2022/10/11 10:11:48;;;;;;;33.33;20.60;;;;;17.80;99632.00;;;;16523024;28;20216;-48
2022/10/11 10:19:53;;;;;;;31.53;21.00;;;;;17.30;99638.00;;;;16510494;28;20720;-48
2022/10/11 10:28:01;;;;;;;28.07;21.40;;;;;17.50;99632.00;;;;16500704;28;20232;-49
2022/10/11 10:36:06;;;;;;;33.23;20.10;;;;;17.60;99632.00;;;;16502746;28;20243;-48
2022/10/11 10:44:11;;;;;;;29.37;19.37;;;;;17.70;99632.00;;;;16506918;28;20227;-49
2022/10/11 10:52:46;;;;;;;24.67;18.50;;;;;17.90;99637.00;;;;16502976;28;20231;-49
2022/10/11 11:00:51;;;;;;;22.37;19.53;;;;;18.20;99633.00;;;;16505756;28;20883;-49
2022/10/11 11:09:04;;;;;;;23.87;18.40;;;;;17.90;99628.00;;;;16501398;28;20587;-49
2022/10/11 11:17:16;;;;;;;23.67;17.70;;;;;18.00;99623.00;;;;16511708;28;20223;-48
2022/10/11 11:25:28;;;;;;;23.73;20.10;;;;;18.00;99620.00;;;;16505429;28;20227;-48
2022/10/11 11:33:40;;;;;;;27.30;19.87;;;;;18.10;99611.00;;;;16492357;28;20236;-51
2022/10/11 11:41:45;;;;;;;22.90;20.00;;;;;18.40;99608.00;;;;16498141;28;20196;-48
2022/10/11 11:49:55;;;;;;;23.43;19.17;;;;;18.00;99614.00;;;;16496160;28;20278;-48
2022/10/11 11:58:07;;;;;;;23.03;18.07;;;;;17.90;99606.00;;;;16497206;28;20228;-49
2022/10/11 12:06:26;;;;;;;22.00;17.87;;;;;18.10;99605.00;;;;16496222;28;20239;-49
2022/10/11 12:14:40;;;;;;;22.57;18.23;;;;;18.20;99603.00;;;;16514126;28;20232;-49
2022/10/11 12:22:57;;;;;;;22.00;16.23;;;;;17.90;99604.00;;;;16511293;28;20227;-50
2022/10/11 12:31:05;;;;;;;18.90;15.10;;;;;17.90;99598.00;;;;16513611;28;20715;-49
2022/10/11 12:39:50;;;;;;;19.37;15.43;;;;;18.20;99598.00;;;;16503123;28;20226;-50
2022/10/11 12:48:02;;;;;;;17.97;16.00;;;;;18.90;99590.00;;;;16502332;28;20241;-49
2022/10/11 12:56:08;;;;;;;22.57;14.50;;;;;18.60;99583.00;;;;16514458;28;20238;-48
2022/10/11 13:04:12;;;;;;;15.63;14.03;;;;;19.00;99575.00;;;;16469124;23;20825;-48
2022/10/11 13:12:18;;;;;;;21.03;14.53;;;;;18.60;99574.00;;;;16447179;28;20592;-48
2022/10/11 13:20:25;;;;;;;18.33;14.93;;;;;19.00;99565.00;;;;16451751;28;20708;-48
2022/10/11 13:28:29;;;;;;;14.80;12.63;;;;;18.80;99556.00;;;;16449784;28;20239;-48
2022/10/11 13:36:33;;;;;;;14.83;13.20;;;;;18.80;99565.00;;;;16447913;28;20231;-48
2022/10/11 13:44:37;;;;;;;18.17;12.47;;;;;18.50;99563.00;;;;16443389;28;20306;-48
2022/10/11 13:52:55;;;;;;;14.97;13.47;;;;;18.90;99561.00;;;;16445690;28;20712;-48
2022/10/11 14:00:59;;;;;;;13.50;12.10;;;;;18.60;99556.00;;;;16447485;28;20237;-48
2022/10/11 14:09:03;;;;;;;13.57;12.30;;;;;18.70;99553.00;;;;16454468;28;20336;-48
2022/10/11 14:17:11;;;;;;;12.93;11.17;;;;;18.30;99557.00;;;;16461156;28;20227;-49
2022/10/11 14:25:15;;;;;;;14.17;11.80;;;;;18.60;99564.00;;;;16457850;28;20221;-48
2022/10/11 14:33:18;;;;;;;18.90;12.60;;;;;18.50;99567.00;;;;16456250;28;20260;-48
2022/10/11 14:41:22;;;;;;;14.90;12.00;;;;;18.20;99568.00;;;;16451451;28;20219;-48
2022/10/11 14:49:25;;;;;;;14.90;13.10;;;;;18.40;99560.00;;;;16456673;28;20228;-47
2022/10/11 14:57:29;;;;;;;14.37;11.33;;;;;18.60;99552.00;;;;16454092;28;20724;-48
2022/10/11 15:05:32;;;;;;;14.17;12.57;;;;;18.80;99552.00;;;;16448034;28;20258;-48
2022/10/11 15:13:35;;;;;;;19.13;14.07;;;;;18.90;99554.00;;;;16440275;28;20232;-48
2022/10/11 15:21:38;;;;;;;16.30;12.27;;;;;19.10;99551.00;;;;16440498;28;20230;-48
2022/10/11 15:29:41;;;;;;;14.83;12.40;;;;;19.80;99548.00;;;;16451417;28;20246;-48
2022/10/11 15:37:44;;;;;;;13.60;11.90;;;;;19.70;99545.00;;;;16448931;28;20228;-48
2022/10/11 15:45:48;;;;;;;17.93;11.57;;;;;19.50;99537.00;;;;16453320;28;20214;-48
2022/10/11 15:53:50;;;;;;;15.87;12.50;;;;;19.20;99535.00;;;;16452973;28;20231;-48
2022/10/11 16:01:54;;;;;;;15.43;13.50;;;;;19.50;99541.00;;;;16446897;28;20307;-48
2022/10/11 16:09:57;;;;;;;18.00;14.90;;;;;18.90;99539.00;;;;16445356;28;20305;-48
2022/10/11 16:18:01;;;;;;;16.70;13.70;;;;;19.00;99542.00;;;;16443164;28;20649;-48
2022/10/11 16:26:05;;;;;;;17.73;14.50;;;;;18.70;99546.00;;;;16443402;28;20739;-48
2022/10/11 16:34:09;;;;;;;17.90;13.63;;;;;18.50;99548.00;;;;16443524;28;20270;-47
2022/10/11 16:42:11;;;;;;;16.60;14.80;;;;;18.40;99551.00;;;;16457740;28;20225;-48
2022/10/11 16:50:15;;;;;;;16.20;13.67;;;;;17.80;99560.00;;;;16443551;28;20234;-48
2022/10/11 16:58:18;;;;;;;14.07;12.57;;;;;17.30;99566.00;;;;16438909;28;20251;-48
2022/10/11 17:06:22;;;;;;;16.53;13.43;;;;;17.20;99575.00;;;;16445646;28;20192;-47
2022/10/11 17:14:24;;;;;;;18.93;14.00;;;;;17.10;99568.00;;;;16449001;28;20232;-47
2022/10/11 17:22:28;;;;;;;16.70;14.93;;;;;16.70;99574.00;;;;16451633;28;20223;-47
2022/10/11 17:30:30;;;;;;;15.90;13.77;;;;;16.40;99573.00;;;;16451368;28;20228;-48
2022/10/11 17:38:34;;;;;;;16.90;14.10;;;;;16.20;99569.00;;;;16440943;28;20235;-48
2022/10/11 17:46:37;;;;;;;17.03;13.63;;;;;16.40;99565.00;;;;16449902;28;20216;-48
2022/10/11 17:54:40;;;;;;;20.20;14.57;;;;;16.10;99577.00;;;;16452750;28;20216;-48
2022/10/11 18:02:43;;;;;;;19.23;16.33;;;;;15.50;99592.00;;;;16454933;28;20232;-47
2022/10/11 18:10:47;;;;;;;21.57;16.83;;;;;15.60;99600.00;;;;16451722;28;20225;-48
2022/10/11 18:18:50;;;;;;;17.00;15.40;;;;;15.50;99593.00;;;;16457495;28;20235;-49
2022/10/11 18:26:53;;;;;;;18.20;15.30;;;;;15.50;99593.00;;;;16456812;28;20738;-48
2022/10/11 18:34:58;;;;;;;16.83;14.70;;;;;15.30;99583.00;;;;16455795;28;20224;-48
2022/10/11 18:43:02;;;;;;;16.10;14.53;;;;;15.40;99580.00;;;;16446790;28;20227;-49
2022/10/11 18:51:06;;;;;;;18.27;15.13;;;;;15.50;99578.00;;;;16448540;28;20231;-48
2022/10/11 18:59:10;;;;;;;17.90;15.37;;;;;15.50;99578.00;;;;16455707;28;20225;-49
2022/10/11 19:07:13;;;;;;;22.63;14.37;;;;;15.40;99583.00;;;;16456466;28;20222;-49
2022/10/11 19:15:17;;;;;;;15.73;14.13;;;;;15.40;99582.00;;;;16458031;28;20655;-49
2022/10/11 19:23:19;;;;;;;17.20;15.27;;;;;15.30;99576.00;;;;16454897;28;20208;-48
2022/10/11 19:31:24;;;;;;;15.60;14.13;;;;;15.60;99573.00;;;;16452911;28;20232;-49
2022/10/11 19:39:28;;;;;;;18.37;16.00;;;;;15.70;99567.00;;;;16447021;28;20231;-48
2022/10/11 19:47:32;;;;;;;24.07;16.20;;;;;15.70;99573.00;;;;16442858;28;20224;-49
2022/10/11 19:55:35;;;;;;;17.50;15.70;;;;;16.00;99578.00;;;;16449618;28;20228;-49
2022/10/11 20:03:39;;;;;;;17.33;15.53;;;;;16.00;99570.00;;;;16443500;28;20241;-49
2022/10/11 20:11:41;;;;;;;18.13;15.60;;;;;15.90;99578.00;;;;16450941;28;20234;-49
2022/10/11 20:19:45;;;;;;;18.60;15.67;;;;;15.80;99577.00;;;;16449930;28;20235;-49
2022/10/11 20:27:47;;;;;;;22.17;15.93;;;;;15.70;99585.00;;;;16448474;28;20221;-49
2022/10/11 20:36:01;;;;;;;21.67;16.47;;;;;16.00;99588.00;;;;16447424;28;20220;-50
2022/10/11 20:44:04;;;;;;;35.87;22.73;;;;;16.30;99585.00;;;;16451505;28;20217;-49
2022/10/11 20:52:08;;;;;;;19.87;16.23;;;;;16.10;99582.00;;;;16453185;28;20586;-49
2022/10/11 21:00:12;;;;;;;18.17;14.30;;;;;15.80;99580.00;;;;16451960;28;20228;-49
2022/10/11 21:08:15;;;;;;;15.80;14.10;;;;;15.80;99580.00;;;;16450788;28;20223;-49
2022/10/11 21:16:18;;;;;;;20.13;14.90;;;;;16.00;99585.00;;;;16454287;28;20819;-49
2022/10/11 21:24:22;;;;;;;16.30;14.60;;;;;16.00;99578.00;;;;16463187;28;20748;-49
2022/10/11 21:32:24;;;;;;;22.27;16.00;;;;;15.90;99574.00;;;;16461377;28;20716;-49
2022/10/11 21:40:28;;;;;;;20.87;15.73;;;;;15.90;99573.00;;;;16461932;28;21036;-49
2022/10/11 21:48:30;;;;;;;18.40;16.53;;;;;16.50;99570.00;;;;16462389;28;20279;-49
2022/10/11 21:56:34;;;;;;;24.33;21.77;;;;;16.70;99551.00;;;;16461588;28;20223;-48
2022/10/11 22:04:36;;;;;;;22.80;20.50;;;;;16.70;99554.00;;;;16459660;28;20229;-49
2022/10/11 22:12:40;;;;;;;23.80;21.00;;;;;16.30;99556.00;;;;16461265;28;20260;-49
2022/10/11 22:20:43;;;;;;;18.73;16.73;;;;;16.10;99548.00;;;;16461845;28;20232;-49
2022/10/11 22:28:47;;;;;;;18.50;16.57;;;;;16.00;99548.00;;;;16459759;28;20704;-49
2022/10/11 22:36:49;;;;;;;18.13;16.23;;;;;15.90;99542.00;;;;16455925;28;20830;-49
2022/10/11 22:44:53;;;;;;;21.23;16.07;;;;;15.90;99541.00;;;;16459195;28;20203;-49
2022/10/11 22:52:55;;;;;;;20.20;17.07;;;;;16.10;99540.00;;;;16459724;28;20225;-49
2022/10/11 23:01:06;;;;;;;23.80;16.50;;;;;16.00;99538.00;;;;16494671;23;20228;-47
2022/10/11 23:09:09;;;;;;;18.17;15.30;;;;;16.00;99540.00;;;;16520486;28;20238;-49
2022/10/11 23:17:13;;;;;;;18.33;16.37;;;;;16.00;99540.00;;;;16517697;28;20321;-48
2022/10/11 23:25:15;;;;;;;21.13;18.83;;;;;16.70;99539.00;;;;16517213;28;20222;-48
2022/10/11 23:33:19;;;;;;;21.90;18.27;;;;;16.30;99530.00;;;;16507693;28;20220;-48
2022/10/11 23:41:22;;;;;;;20.00;16.80;;;;;15.90;99531.00;;;;16513562;28;20226;-49
2022/10/11 23:49:26;;;;;;;20.50;16.17;;;;;15.50;99531.00;;;;16514444;28;20302;-49
2022/10/11 23:57:28;;;;;;;18.90;15.87;;;;;15.80;99520.00;;;;16514286;28;20630;-49
